Flight Track Log - Related Links

Times and Time Zones

All times are in EDT time to prevent confusion due to time zone crossing. See the XOJ552 flight status page for this flight to view local times or setup timezone preferences in your user account.

Time Position Orientation Groundspeed Altitude Reporting Facility
EDT Latitude Longitude Course Direction KTS MPH feet Rate Location/Type
Mon 08:27:39 AM 41.0833 -73.7167 288° West 162 186 1,300  Level New York TRACON
Mon 08:28:38 AM 41.1000 -73.7833 288° West 187 215 4,700 2,850 Climbing New York TRACON
Mon 08:29:39 AM 41.0833 -73.8667 255° West 239 275 7,000 1,181 Climbing New York TRACON
Mon 08:30:45 AM 41.0667 -73.9500 255° West 248 285 7,200 2,238 Climbing New York TRACON
Mon 08:31:45 AM 41.0500 -74.0500 258° West 262 302 11,700 3,900 Climbing New York TRACON
Mon 08:32:45 AM 41.0167 -74.1500 246° West 285 328 15,000 1,650 Climbing New York TRACON
Mon 08:33:45 AM 40.9833 -74.2500 246° West 293 337 15,000 350 Level New York TRACON
Mon 08:34:45 AM 40.9667 -74.3500 258° West 296 341 15,700 1,109 Climbing New York TRACON
Mon 08:35:17 AM 40.9664 -74.3956 270° West 304 350 16,700 1,239 Climbing New York Center
Mon 08:36:17 AM 40.9603 -74.5217 266° West 311 358 17,600 1,934 Climbing New York Center
Mon 08:37:18 AM 40.9531 -74.6231 265° West 311 358 20,600 3,223 Climbing New York Center
Mon 08:38:18 AM 40.9389 -74.7294 260° West 311 358 24,100 3,150 Climbing New York Center
Mon 08:39:18 AM 40.9208 -74.8325 257° West 306 352 26,900 2,430 Climbing New York Center
Mon 08:40:19 AM 40.9006 -74.9383 256° West 301 346 29,000 2,033 Climbing New York Center
Mon 08:41:19 AM 40.8822 -75.0444 257° West 301 346 31,000 1,525 Climbing New York Center
Mon 08:42:17 AM 40.8611 -75.1639 257° West 312 359 32,000 1,017 Climbing New York Center
Mon 08:43:17 AM 40.8378 -75.2883 256° West 335 386 33,000 1,000 Climbing New York Center
Mon 08:44:17 AM 40.8139 -75.4183 256° West 359 413 34,000 942 Climbing New York Center
Mon 08:45:18 AM 40.7897 -75.5567 257° West 375 432 34,900 934 Climbing New York Center
Mon 08:46:19 AM 40.7650 -75.7000 257° West 392 451 35,900 1,041 Climbing New York Center
Mon 08:47:19 AM 40.7383 -75.8406 256° West 397 457 37,000 1,109 Climbing New York Center
Mon 08:48:18 AM 40.7133 -75.9783 257° West 397 457 38,100 1,050 Climbing New York Center
Mon 08:49:19 AM 40.6864 -76.1186 256° West 397 457 39,100 942 Climbing New York Center
Mon 08:50:19 AM 40.6697 -76.2569 261° West 392 451 40,000 712 Climbing New York Center
Mon 08:51:17 AM 40.6819 -76.3947 277° West 382 440 40,500 504 Climbing New York Center
Mon 08:52:18 AM 40.6978 -76.5383 278° West 394 453 41,000 496 Climbing New York Center
Mon 08:53:18 AM 40.7139 -76.6794 279° West 394 453 41,500 496 Climbing New York Center
Mon 08:54:19 AM 40.7319 -76.8181 280° West 394 453 42,000 403 Climbing New York Center
Mon 08:55:17 AM 40.7475 -76.9592 278° West 394 453 42,300 300 Climbing New York Center
Mon 08:56:19 AM 40.7653 -77.0978 280° West 394 453 42,600 344 Climbing New York Center
Mon 08:57:19 AM 40.7803 -77.2417 278° West 394 453 43,000 203 Climbing New York Center
Mon 08:58:17 AM 40.7978 -77.3806 279° West 388 447 43,000  Level New York Center
Mon 09:00:09 AM 40.8283 -77.6633 278° West 391 450 43,000  Level Cleveland Center
Mon 09:01:09 AM 40.8444 -77.8108 278° West 396 456 43,000  Level Cleveland Center
Mon 09:02:09 AM 40.8625 -77.9583 279° West 408 470 43,000  Level Cleveland Center
Mon 09:03:09 AM 40.8783 -78.1086 278° West 408 470 43,000  Level Cleveland Center
Mon 09:04:09 AM 40.8961 -78.2592 279° West 408 470 43,000  Level Cleveland Center
Mon 09:05:09 AM 40.9117 -78.4097 278° West 413 475 43,000  Level Cleveland Center
Mon 09:06:09 AM 40.9289 -78.5603 279° West 413 475 43,000  Level Cleveland Center
Mon 09:07:09 AM 40.9442 -78.7083 278° West 413 475 43,000  Level Cleveland Center
Mon 09:08:09 AM 40.9589 -78.8592 277° West 413 475 43,000  Level Cleveland Center
Mon 09:09:09 AM 40.9736 -79.0044 278° West 413 475 43,000  Level Cleveland Center
Mon 09:10:09 AM 40.9881 -79.1528 277° West 408 470 43,000  Level Cleveland Center
Mon 09:11:09 AM 41.0022 -79.3011 277° West 408 470 43,000  Level Cleveland Center
Mon 09:12:09 AM 41.0164 -79.4494 277° West 408 470 43,000  Level Cleveland Center
Mon 09:13:09 AM 41.0303 -79.6006 277° West 413 475 43,000  Level Cleveland Center
Mon 09:14:09 AM 41.0419 -79.7517 276° West 413 475 43,000  Level Cleveland Center
Mon 09:15:09 AM 41.0575 -79.9003 278° West 413 475 43,000  Level Cleveland Center
Mon 09:16:09 AM 41.0708 -80.0517 277° West 413 475 43,000  Level Cleveland Center
Mon 09:17:09 AM 41.0839 -80.1919 277° West 425 489 43,000  Level Cleveland Center
Mon 09:18:09 AM 41.0967 -80.3433 276° West 425 489 43,000  Level Cleveland Center
Mon 09:19:09 AM 41.1114 -80.4978 277° West 425 489 43,000  Level Cleveland Center
Mon 09:20:09 AM 41.1242 -80.6492 276° West 425 489 43,000  Level Cleveland Center
Mon 09:21:09 AM 41.1342 -80.8175 275° West 425 489 43,000  Level Cleveland Center
Mon 09:22:09 AM 41.1483 -80.9719 277° West 425 489 43,000  Level Cleveland Center
Mon 09:23:09 AM 41.1603 -81.1264 276° West 420 483 43,000  Level Cleveland Center
Mon 09:24:09 AM 41.1719 -81.2811 276° West 427 491 43,000  Level Cleveland Center
Mon 09:25:09 AM 41.1878 -81.4192 279° West 427 491 43,000  Level Cleveland Center
Mon 09:26:09 AM 41.1989 -81.5767 275° West 427 491 43,000  Level Cleveland Center
Mon 09:27:09 AM 41.2078 -81.7367 274° West 427 491 43,000  Level Cleveland Center
Mon 09:28:09 AM 41.2208 -81.8944 276° West 432 497 43,000  Level Cleveland Center
Mon 09:29:09 AM 41.2333 -82.0519 276° West 426 490 43,000  Level Cleveland Center
Mon 09:30:09 AM 41.2436 -82.2233 275° West 431 496 43,000  Level Cleveland Center
Mon 09:31:09 AM 41.2536 -82.3839 275° West 431 496 43,000  Level Cleveland Center
Mon 09:32:09 AM 41.2658 -82.5389 276° West 425 489 43,000  Level Cleveland Center
Mon 09:33:09 AM 41.2756 -82.6939 275° West 424 488 43,000  Level Cleveland Center
Mon 09:34:09 AM 41.2850 -82.8464 275° West 424 488 43,000  Level Cleveland Center
Mon 09:35:09 AM 41.2944 -83.0014 275° West 424 488 43,000  Level Cleveland Center
Mon 09:36:09 AM 41.3056 -83.1539 276° West 424 488 43,000  Level Cleveland Center
Mon 09:37:09 AM 41.3125 -83.3061 274° West 424 488 43,000  Level Cleveland Center
Mon 09:38:09 AM 41.3211 -83.4642 274° West 424 488 43,000  Level Cleveland Center
Mon 09:39:09 AM 41.3317 -83.6194 275° West 424 488 43,000  Level Cleveland Center
Mon 09:40:09 AM 41.3386 -83.7553 274° West 424 488 43,000  Level Cleveland Center
Mon 09:41:09 AM 41.3481 -83.9275 274° West 424 488 43,000  Level Cleveland Center
Mon 09:42:09 AM 41.3567 -84.0661 275° West 424 488 43,000  Level Cleveland Center
Mon 09:43:01 AM 41.3656 -84.1997 275° West 416 479 43,000  Level Chicago Center
Mon 09:44:03 AM 41.3739 -84.3547 274° West 419 482 43,000  Level Chicago Center
Mon 09:45:05 AM 41.3817 -84.5103 274° West 421 484 43,000  Level Chicago Center
Mon 09:46:08 AM 41.3914 -84.7003 274° West 426 490 43,000  Level Chicago Center
Mon 09:47:10 AM 41.3992 -84.8589 274° West 429 494 43,000  Level Chicago Center
Mon 09:48:12 AM 41.4064 -85.0169 274° West 428 493 43,000  Level Chicago Center
Mon 09:49:14 AM 41.4131 -85.1758 273° West 427 491 43,000  Level Chicago Center
Mon 09:50:16 AM 41.4203 -85.3361 273° West 428 493 43,000  Level Chicago Center
Mon 09:51:18 AM 41.4261 -85.4975 273° West 429 494 43,000  Level Chicago Center
Mon 09:52:20 AM 41.4333 -85.6578 273° West 429 494 43,000  Level Chicago Center
Mon 09:53:22 AM 41.4394 -85.8169 273° West 427 491 43,000  Level Chicago Center
Mon 09:54:24 AM 41.4461 -86.0089 273° West 431 496 43,000  Level Chicago Center
Mon 09:55:26 AM 41.4522 -86.1681 273° West 431 496 43,000  Level Chicago Center
Mon 09:56:28 AM 41.4572 -86.3283 272° West 432 497 43,000  Level Chicago Center
Mon 09:57:31 AM 41.4636 -86.4892 273° West 435 501 43,000  Level Chicago Center
Mon 09:58:33 AM 41.4686 -86.6492 272° West 435 501 43,000  Level Chicago Center
Mon 09:59:35 AM 41.4747 -86.8206 273° West 430 495 43,000  Level Chicago Center
Mon 10:00:37 AM 41.4794 -86.9781 272° West 429 494 43,000 97 Level Chicago Center
Mon 10:01:39 AM 41.4828 -87.1369 272° West 430 495 43,200 242 Climbing Chicago Center
Mon 10:02:41 AM 41.4883 -87.3258 272° West 428 493 43,500 242 Climbing Chicago Center
Mon 10:03:43 AM 41.4931 -87.4825 272° West 427 491 43,700 194 Climbing Chicago Center
Mon 10:04:45 AM 41.4964 -87.6386 272° West 426 490 43,900 194 Climbing Chicago Center
Mon 10:05:47 AM 41.4997 -87.7939 272° West 425 489 44,100 194 Climbing Chicago Center
Mon 10:06:49 AM 41.5028 -87.9503 272° West 425 489 44,300 242 Climbing Chicago Center
Mon 10:07:51 AM 41.5081 -88.1378 272° West 423 487 44,600 192 Climbing Chicago Center
Mon 10:08:54 AM 41.5092 -88.2756 271° West 413 475 44,700 192 Climbing Chicago Center
Mon 10:09:56 AM 41.5114 -88.4286 271° West 416 479 45,000 145 Climbing Chicago Center
Mon 10:10:58 AM 41.5139 -88.6117 271° West 413 475 45,000  Level Chicago Center
Mon 10:12:00 AM 41.5156 -88.7658 271° West 418 481 45,000  Level Chicago Center
Mon 10:13:02 AM 41.5178 -88.9203 271° West 420 483 45,000  Level Chicago Center
Mon 10:14:04 AM 41.5194 -89.0761 271° West 423 487 45,000  Level Chicago Center
Mon 10:15:06 AM 41.5228 -89.2492 272° West 424 488 45,000  Level Chicago Center
Mon 10:16:08 AM 41.5242 -89.4072 271° West 426 490 45,000  Level Chicago Center
Mon 10:17:10 AM 41.5247 -89.5667 270° West 430 495 45,000  Level Chicago Center
Mon 10:18:12 AM 41.5267 -89.7258 271° West 432 497 45,000  Level Chicago Center
Mon 10:19:14 AM 41.5269 -89.9172 270° West 433 498 45,000  Level Chicago Center
Mon 10:20:17 AM 41.5281 -90.0742 271° West 427 491 45,000  Level Chicago Center
Mon 10:21:19 AM 41.5286 -90.2322 270° West 428 493 45,000  Level Chicago Center
Mon 10:22:21 AM 41.5286 -90.3903 270° West 429 494 45,000  Level Chicago Center
Mon 10:23:23 AM 41.5283 -90.5489 270° West 430 495 45,000  Level Chicago Center
Mon 10:24:25 AM 41.5256 -90.7306 269° West 440 506 45,000  Level Chicago Center
Mon 10:25:27 AM 41.5244 -90.8908 270° West 435 501 45,000  Level Chicago Center
Mon 10:26:29 AM 41.5247 -91.0508 270° West 434 499 45,000  Level Chicago Center
Mon 10:27:31 AM 41.5228 -91.2097 269° West 431 496 45,000  Level Chicago Center
Mon 10:28:33 AM 41.5217 -91.4025 270° West 434 499 45,000  Level Chicago Center
Mon 10:29:35 AM 41.5192 -91.5606 269° West 431 496 45,000  Level Chicago Center
Mon 10:30:37 AM 41.5083 -91.7217 265° West 438 504 45,000  Level Chicago Center
Mon 10:31:39 AM 41.4939 -91.8831 263° West 440 506 45,000  Level Chicago Center
Mon 10:32:42 AM 41.4778 -92.0450 262° West 442 509 45,000  Level Chicago Center
Mon 10:33:44 AM 41.4597 -92.2381 263° West 441 507 45,000  Level Chicago Center
Mon 10:34:46 AM 41.4425 -92.3986 262° West 441 507 45,000  Level Chicago Center
Mon 10:35:48 AM 41.4264 -92.5644 263° West 437 503 45,000  Level Chicago Center
Mon 10:36:46 AM 41.4131 -92.6919 262° West 438 504 45,000  Level Minneapolis Center
Mon 10:37:48 AM 41.3942 -92.8814 262° West 435 501 45,000  Level Minneapolis Center
Mon 10:38:50 AM 41.3767 -93.0400 262° West 436 502 45,000  Level Minneapolis Center
Mon 10:39:52 AM 41.3606 -93.1972 262° West 436 502 45,000  Level Minneapolis Center
Mon 10:40:54 AM 41.3439 -93.3567 262° West 438 504 45,000  Level Minneapolis Center
Mon 10:41:56 AM 41.3217 -93.5439 261° West 434 499 45,000  Level Minneapolis Center
Mon 10:42:58 AM 41.3058 -93.6997 262° West 431 496 45,000  Level Minneapolis Center
Mon 10:44:12 AM 41.2886 -93.8592 262° West 437 503 45,000  Level Minneapolis Center
Mon 10:45:14 AM 41.2675 -94.0478 262° West 436 502 45,000  Level Minneapolis Center
Mon 10:46:16 AM 41.2506 -94.2025 262° West 431 496 45,000  Level Minneapolis Center
Mon 10:47:30 AM 41.2294 -94.3703 261° West 431 496 45,000  Level Minneapolis Center
Mon 10:48:32 AM 41.2053 -94.5881 262° West 428 493 45,000  Level Minneapolis Center
Mon 10:49:34 AM 41.1850 -94.7447 260° West 429 494 45,000  Level Minneapolis Center
Mon 10:50:36 AM 41.1664 -94.9003 261° West 428 493 45,000  Level Minneapolis Center
Mon 10:51:50 AM 41.1461 -95.0569 260° West 430 495 45,000  Level Minneapolis Center
Mon 10:52:52 AM 41.1217 -95.2450 260° West 429 494 45,000  Level Minneapolis Center
Mon 10:53:54 AM 41.1019 -95.4008 261° West 428 493 45,000  Level Minneapolis Center
Mon 10:54:56 AM 41.0817 -95.5575 260° West 428 493 45,000  Level Minneapolis Center
Mon 10:55:57 AM 41.0650 -95.6814 260° West 426 490 45,000  Level Minneapolis Center
Mon 10:57:00 AM 41.0372 -95.8441 257° West  Level FlightAware Approximate
Mon 10:58:02 AM 41.0156 -96.0583 257° West 429 494 45,000  Level Minneapolis Center
Mon 10:59:03 AM 40.9950 -96.2139 260° West 426 490 45,000  Level Minneapolis Center
Mon 11:00:05 AM 40.9739 -96.3697 260° West 427 491 45,000  Level Minneapolis Center
Mon 11:01:07 AM 40.9531 -96.5253 260° West 428 493 45,000  Level Minneapolis Center
Mon 11:02:09 AM 40.9317 -96.6803 260° West 428 493 45,000  Level Minneapolis Center
Mon 11:03:11 AM 40.9131 -96.8361 261° West 428 493 45,000  Level Minneapolis Center
Mon 11:04:13 AM 40.8994 -96.9928 263° West 429 494 45,000  Level Minneapolis Center
Mon 11:05:14 AM 40.8811 -97.1800 263° West 428 493 45,000  Level Minneapolis Center
Mon 11:06:16 AM 40.8656 -97.3364 263° West 430 495 45,000  Level Minneapolis Center
Mon 11:07:18 AM 40.8514 -97.4844 263° West 432 497 45,000  Level Minneapolis Center
Mon 11:08:32 AM 40.8353 -97.6422 262° West 433 498 45,000  Level Minneapolis Center
Mon 11:09:34 AM 40.8161 -97.8347 263° West 438 504 45,000  Level Minneapolis Center
Mon 11:10:36 AM 40.7956 -98.0289 262° West 442 509 45,000  Level Minneapolis Center
Mon 11:11:50 AM 40.7778 -98.1911 262° West 445 512 45,000  Level Minneapolis Center
Mon 11:12:52 AM 40.7567 -98.3861 262° West 445 512 45,000  Level Minneapolis Center
Mon 11:13:53 AM 40.7397 -98.5511 262° West 448 516 45,000  Level Minneapolis Center
Mon 11:14:55 AM 40.7211 -98.7139 261° West 447 514 45,000  Level Minneapolis Center
Mon 11:16:09 AM 40.7031 -98.8772 262° West 447 514 45,000  Level Minneapolis Center
Mon 11:17:11 AM 40.6811 -99.0733 262° West 447 514 45,000  Level Minneapolis Center
Mon 11:18:14 AM 40.6625 -99.2361 261° West 450 518 45,000  Level Denver Center
Mon 11:19:16 AM 40.6417 -99.4000 261° West 452 520 45,000  Level Denver Center
Mon 11:20:18 AM 40.6192 -99.6000 262° West 458 527 45,000  Level Denver Center
Mon 11:21:20 AM 40.5989 -99.7644 261° West 456 525 45,000  Level Denver Center
Mon 11:22:22 AM 40.5778 -99.9433 261° West 458 527 45,000  Level Denver Center
Mon 11:23:24 AM 40.5581 -100.1031 261° West 461 531 45,000  Level Denver Center
Mon 11:24:26 AM 40.5383 -100.2619 261° West 459 528 45,000  Level Denver Center
Mon 11:25:28 AM 40.5153 -100.4478 261° West 458 527 45,000  Level Denver Center
Mon 11:26:30 AM 40.4939 -100.6081 260° West 461 531 45,000  Level Denver Center
Mon 11:27:32 AM 40.4697 -100.7961 260° West 463 533 45,000  Level Denver Center
Mon 11:28:34 AM 40.4489 -100.9575 260° West 465 535 45,000  Level Denver Center
Mon 11:29:36 AM 40.4244 -101.1453 260° West 465 535 45,000  Level Denver Center
Mon 11:30:38 AM 40.4017 -101.3053 259° West 465 535 45,000  Level Denver Center
Mon 11:31:40 AM 40.3806 -101.4653 260° West 465 535 45,000  Level Denver Center
Mon 11:32:42 AM 40.3553 -101.6511 260° West 464 534 45,000  Level Denver Center
Mon 11:33:44 AM 40.3322 -101.8100 259° West 463 533 45,000  Level Denver Center
Mon 11:34:46 AM 40.3042 -101.9939 259° West 461 531 45,000  Level Denver Center
Mon 11:35:48 AM 40.2814 -102.1517 259° West 461 531 45,000  Level Denver Center
Mon 11:36:50 AM 40.2550 -102.3358 259° West 463 533 45,000  Level Denver Center
Mon 11:37:52 AM 40.2317 -102.4917 259° West 457 526 45,000  Level Denver Center
Mon 11:38:54 AM 40.2044 -102.6747 259° West 458 527 45,000  Level Denver Center
Mon 11:39:57 AM 40.1800 -102.8314 259° West 461 531 45,000  Level Denver Center
Mon 11:40:59 AM 40.1525 -103.0161 259° West 463 533 45,000  Level Denver Center
Mon 11:42:01 AM 40.1278 -103.1731 258° West 461 531 45,000  Level Denver Center
Mon 11:43:03 AM 40.0992 -103.3572 259° West 463 533 45,000  Level Denver Center
Mon 11:44:05 AM 40.0756 -103.5139 259° West 460 529 45,000  Level Denver Center
Mon 11:45:07 AM 40.0503 -103.6700 258° West 460 529 45,000  Level Denver Center
Mon 11:46:09 AM 40.0194 -103.8619 258° West 467 537 45,000  Level Denver Center
Mon 11:47:11 AM 39.9939 -104.0242 258° West 459 528 45,000  Level Denver Center
Mon 11:48:13 AM 39.9650 -104.1997 258° West 462 532 45,000  Level Denver Center
Mon 11:49:15 AM 39.9389 -104.3625 258° West 460 529 45,000  Level Denver Center
Mon 11:50:17 AM 39.9122 -104.5242 258° West 461 531 45,000  Level Denver Center
Mon 11:51:19 AM 39.8794 -104.7036 257° West 460 529 45,000  Level Denver Center
Mon 11:52:21 AM 39.8467 -104.8739 256° West 463 533 45,000  Level Denver Center
Mon 11:53:23 AM 39.8164 -105.0344 256° West 460 529 45,000  Level Denver Center
Mon 11:54:25 AM 39.7653 -105.2011 248° West 460 529 45,000  Level Denver Center
Mon 11:55:27 AM 39.7092 -105.3547 245° Southwest 471 542 45,000  Level Denver Center
Mon 11:56:29 AM 39.6603 -105.4839 244° Southwest 471 542 45,000  Level Denver Center
Mon 11:57:31 AM 39.5906 -105.6722 244° Southwest 474 545 45,000  Level Denver Center
Mon 11:58:33 AM 39.5317 -105.8292 244° Southwest 459 528 45,000  Level Denver Center
Mon 12:00:42 PM 39.4164 -106.1411 245° Southwest 466 536 45,000  Level Salt Lake Center
Mon 12:01:02 PM 39.4067 -106.1661 243° Southwest 465 535 45,000  Level Denver Center
Mon 12:02:04 PM 39.3331 -106.3578 244° Southwest 467 537 45,000  Level Denver Center
Mon 12:03:06 PM 39.2794 -106.5000 244° Southwest 462 532 45,000  Level Denver Center
Mon 12:04:08 PM 39.2147 -106.6656 243° Southwest 462 532 45,000  Level Denver Center
Mon 12:05:10 PM 39.1600 -106.8081 244° Southwest 462 532 45,000  Level Denver Center
Mon 12:06:12 PM 39.0950 -106.9733 243° Southwest 463 533 45,000  Level Denver Center
Mon 12:07:14 PM 39.0394 -107.1158 243° Southwest 464 534 45,000  Level Denver Center
Mon 12:08:16 PM 38.9825 -107.2603 243° Southwest 471 542 45,000  Level Denver Center
Mon 12:09:18 PM 38.9183 -107.4250 243° Southwest 466 536 45,000  Level Denver Center
Mon 12:10:20 PM 38.8622 -107.5656 243° Southwest 461 531 45,000  Level Denver Center
Mon 12:11:22 PM 38.7969 -107.7306 243° Southwest 463 533 45,000  Level Denver Center
Mon 12:12:24 PM 38.7394 -107.8725 243° Southwest 465 535 45,000  Level Denver Center
Mon 12:13:26 PM 38.6744 -108.0372 243° Southwest 464 534 45,000  Level Denver Center
Mon 12:14:29 PM 38.6175 -108.1783 243° Southwest 465 535 45,000  Level Denver Center
Mon 12:15:31 PM 38.5511 -108.3428 243° Southwest 467 537 45,000  Level Denver Center
Mon 12:16:33 PM 38.4933 -108.4831 242° Southwest 466 536 45,000  Level Denver Center
Mon 12:17:34 PM 38.4461 -108.6014 243° Southwest 467 537 45,000  Level Denver Center
Mon 12:18:37 PM 38.3686 -108.7903 242° Southwest 468 539 45,000  Level Denver Center
Mon 12:19:39 PM 38.3103 -108.9306 242° Southwest 467 537 45,000  Level Denver Center
Mon 12:20:41 PM 38.2428 -109.0936 242° Southwest 466 536 45,000  Level Denver Center
Mon 12:21:43 PM 38.1839 -109.2319 242° Southwest 463 533 45,000  Level Denver Center
Mon 12:22:45 PM 38.1158 -109.3931 242° Southwest 462 532 45,000  Level Denver Center
Mon 12:23:47 PM 38.0578 -109.5331 242° Southwest 465 535 45,000  Level Denver Center
Mon 12:24:49 PM 37.9886 -109.6956 242° Southwest 465 535 45,000  Level Denver Center
Mon 12:25:51 PM 37.9289 -109.8328 241° Southwest 464 534 45,000  Level Denver Center
Mon 12:26:53 PM 37.8622 -109.9936 242° Southwest 463 533 45,000  Level Denver Center
Mon 12:27:55 PM 37.8017 -110.1322 241° Southwest 467 537 45,000  Level Denver Center
Mon 12:28:57 PM 37.7333 -110.2925 242° Southwest 466 536 45,000  Level Denver Center
Mon 12:30:11 PM 37.6744 -110.4289 241° Southwest 465 535 45,000  Level Denver Center
Mon 12:31:13 PM 37.5964 -110.6069 241° Southwest 469 540 45,000  Level Denver Center
Mon 12:32:15 PM 37.5336 -110.7489 241° Southwest 465 535 45,000  Level Denver Center
Mon 12:33:17 PM 37.4697 -110.8925 241° Southwest 467 537 45,000  Level Denver Center
Mon 12:34:20 PM 37.4067 -111.0344 241° Southwest 465 535 45,000  Level Denver Center
Mon 12:35:22 PM 37.3308 -111.2050 241° Southwest 465 535 45,000  Level Denver Center
Mon 12:36:24 PM 37.2675 -111.3478 241° Southwest 466 536 45,000  Level Denver Center
Mon 12:37:26 PM 37.2036 -111.4897 241° Southwest 466 536 45,000  Level Denver Center
Mon 12:38:28 PM 37.1417 -111.6303 241° Southwest 463 533 45,000  Level Denver Center
Mon 12:39:30 PM 37.0797 -111.7711 241° Southwest 460 529 45,000  Level Denver Center
Mon 12:40:32 PM 37.0125 -111.9144 240° Southwest 469 540 45,000  Level Denver Center
Mon 12:41:34 PM 36.9347 -112.0864 241° Southwest 472 543 45,000  Level Denver Center
Mon 12:42:35 PM 36.8681 -112.2292 240° Southwest 470 541 45,000  Level Los Angeles Center
Mon 12:43:37 PM 36.8017 -112.3717 240° Southwest 471 542 45,000  Level Los Angeles Center
Mon 12:44:39 PM 36.7358 -112.5142 240° Southwest 472 543 45,000  Level Los Angeles Center
Mon 12:45:41 PM 36.6692 -112.6569 240° Southwest 475 547 45,000  Level Los Angeles Center
Mon 12:46:43 PM 36.6025 -112.7992 240° Southwest 475 547 45,000  Level Los Angeles Center
Mon 12:47:45 PM 36.5364 -112.9414 240° Southwest 474 545 45,000  Level Los Angeles Center
Mon 12:48:47 PM 36.4697 -113.0836 240° Southwest 476 548 45,000  Level Los Angeles Center
Mon 12:49:49 PM 36.3886 -113.2536 239° Southwest 478 550 45,000  Level Los Angeles Center
Mon 12:50:51 PM 36.3192 -113.4036 240° Southwest 475 547 45,000  Level Los Angeles Center
Mon 12:51:53 PM 36.2511 -113.5447 239° Southwest 476 548 45,000  Level Los Angeles Center
Mon 12:52:56 PM 36.1842 -113.6853 239° Southwest 474 545 45,000  Level Los Angeles Center
Mon 12:53:58 PM 36.1172 -113.8261 240° Southwest 473 544 45,000 -97 Level Los Angeles Center
Mon 12:55:00 PM 36.0503 -113.9664 239° Southwest 472 543 44,800 -387 Descending Los Angeles Center
Mon 12:56:02 PM 35.9814 -114.1042 238° Southwest 471 542 44,200 -581 Descending Los Angeles Center
Mon 12:57:04 PM 35.9133 -114.2425 239° Southwest 470 541 43,600 -726 Descending Los Angeles Center
Mon 12:58:06 PM 35.8333 -114.4097 239° Southwest 471 542 42,700 -871 Descending Los Angeles Center
Mon 12:59:08 PM 35.7647 -114.5506 239° Southwest 476 548 41,800 -1,210 Descending Los Angeles Center
Mon 01:00:10 PM 35.6947 -114.6936 239° Southwest 484 557 40,200 -2,129 Descending Los Angeles Center
Mon 01:01:12 PM 35.6242 -114.8358 239° Southwest 486 559 37,400 -2,758 Descending Los Angeles Center
Mon 01:02:14 PM 35.5539 -114.9761 238° Southwest 482 555 34,500 -1,645 Descending Los Angeles Center
Mon 01:03:16 PM 35.4833 -115.1192 239° Southwest 487 560 34,000 -240 Descending Los Angeles Center
Mon 01:04:19 PM 35.4108 -115.2625 238° Southwest 491 565 34,000 -576 Level Los Angeles Center
Mon 01:05:21 PM 35.3256 -115.4328 238° Southwest 487 560 32,800 -1,452 Descending Los Angeles Center
Mon 01:06:23 PM 35.2581 -115.5669 238° Southwest 488 562 31,000 -2,129 Descending Los Angeles Center
Mon 01:07:25 PM 35.1861 -115.7072 238° Southwest 488 562 28,400 -2,516 Descending Los Angeles Center
Mon 01:08:27 PM 35.1161 -115.8469 239° Southwest 483 556 25,800 -2,129 Descending Los Angeles Center
Mon 01:09:29 PM 35.0481 -115.9797 238° Southwest 467 537 24,000 -871 Descending Los Angeles Center
Mon 01:10:31 PM 34.9675 -116.1333 237° Southwest 451 519 24,000 -194 Level Los Angeles Center
Mon 01:11:33 PM 34.9031 -116.2608 238° Southwest 444 511 23,600 -919 Descending Los Angeles Center
Mon 01:12:35 PM 34.8417 -116.3892 240° Southwest 438 504 22,100 -774 Descending Los Angeles Center
Mon 01:13:37 PM 34.8244 -116.5333 262° West 428 493 22,000 -48 Descending Los Angeles Center
Mon 01:14:39 PM 34.8064 -116.6767 261° West 428 493 22,000 -336 Level Los Angeles Center
Mon 01:15:42 PM 34.7892 -116.8222 262° West 434 499 21,300 -912 Descending Los Angeles Center
Mon 01:16:44 PM 34.7683 -116.9933 262° West 427 491 20,100 -1,065 Descending Los Angeles Center
Mon 01:17:46 PM 34.7500 -117.1322 261° West 417 480 19,100 -774 Descending Los Angeles Center
Mon 01:18:48 PM 34.7322 -117.2714 261° West 415 478 18,500 -532 Descending Los Angeles Center
Mon 01:19:50 PM 34.7136 -117.4078 261° West 410 472 18,000 -242 Descending Los Angeles Center
Mon 01:20:52 PM 34.6947 -117.5481 261° West 418 481 18,000 -629 Level Los Angeles Center
Mon 01:21:54 PM 34.6772 -117.6875 261° West 417 480 16,700 -1,645 Descending Los Angeles Center
Mon 01:22:56 PM 34.6597 -117.8136 260° West 385 443 14,600 -2,177 Descending Los Angeles Center
Mon 01:23:58 PM 34.6442 -117.9606 263° West 362 417 12,200 -1,728 Descending Los Angeles Center
Mon 01:25:01 PM 34.6328 -118.0664 263° West 321 369 11,000 -1,248 Descending Los Angeles Center
Mon 01:26:03 PM 34.6103 -118.1678 255° West 298 343 9,600 -1,210 Descending Los Angeles Center
Mon 01:27:05 PM 34.5889 -118.2592 254° West 286 329 8,500 -726 Descending Los Angeles Center
Mon 01:28:07 PM 34.5686 -118.3483 255° West 278 320 8,100 -242 Descending Los Angeles Center
Mon 01:29:09 PM 34.5536 -118.4183 255° West 271 312 8,000 -435 Descending Los Angeles Center
Mon 01:30:11 PM 34.5042 -118.4875 229° Southwest 235 270 7,200 -1,016 Descending Los Angeles Center
Mon 01:31:13 PM 34.4208 -118.5047 190° South 249 287 5,900 -1,113 Descending Los Angeles Center
Mon 01:32:15 PM 34.3581 -118.5075 182° South 230 265 4,900 -1,103 Descending Los Angeles Center
Mon 01:32:40 PM 34.3333 -118.5000 166° South 221 254 4,300 -1,624 Descending Southern California TRACON
Mon 01:33:40 PM 34.2833 -118.5000 180° South 184 212 2,600 -1,500 Descending Southern California TRACON
Mon 01:34:40 PM 34.2333 -118.5000 180° South 146 168 1,300 -1,300 Descending Southern California TRACON
Mon 01:37:00 PM 34.2098 -118.4900 180° South  Level Estimated

Login

Don't have an account? Register now (free) for customized features, flight alerts, and more!